createdAt,value
2018-12-29T00:00:07.856Z,1026.58
2018-12-29T00:01:07.824Z,1026.64
2018-12-29T00:02:07.792Z,1026.64
2018-12-29T00:03:07.759Z,1026.65
2018-12-29T00:04:07.725Z,1026.67
2018-12-29T00:05:07.692Z,1026.67
2018-12-29T00:06:07.661Z,1026.74
2018-12-29T00:07:07.628Z,1026.71
2018-12-29T00:08:07.594Z,1026.70
2018-12-29T00:09:07.563Z,1026.68
2018-12-29T00:10:07.528Z,1026.69
2018-12-29T00:11:07.496Z,1026.70
2018-12-29T00:12:07.462Z,1026.70
2018-12-29T00:13:07.428Z,1026.70
2018-12-29T00:14:07.396Z,1026.71
2018-12-29T00:15:07.363Z,1026.72
2018-12-29T00:16:07.330Z,1026.69
2018-12-29T00:17:07.297Z,1026.73
2018-12-29T00:18:07.267Z,1026.72
2018-12-29T00:19:07.233Z,1026.73
2018-12-29T00:20:07.202Z,1026.77
2018-12-29T00:21:07.167Z,1026.76
2018-12-29T00:22:07.135Z,1026.81
2018-12-29T00:23:07.104Z,1026.78
2018-12-29T00:24:07.071Z,1026.77
2018-12-29T00:25:07.035Z,1026.78
2018-12-29T00:26:07.003Z,1026.76
2018-12-29T00:27:06.970Z,1026.80
2018-12-29T00:28:06.937Z,1026.83
2018-12-29T00:29:06.904Z,1026.82
2018-12-29T00:30:06.873Z,1026.79
2018-12-29T00:31:06.838Z,1026.84
2018-12-29T00:32:06.805Z,1026.79
2018-12-29T00:33:06.772Z,1026.82
2018-12-29T00:34:06.739Z,1026.78
2018-12-29T00:35:06.707Z,1026.78
2018-12-29T00:36:07.344Z,1026.77
2018-12-29T00:37:06.640Z,1026.77
2018-12-29T00:38:06.607Z,1026.70
2018-12-29T00:39:06.576Z,1026.74
2018-12-29T00:40:06.543Z,1026.72
2018-12-29T00:41:06.508Z,1026.70
2018-12-29T00:42:06.476Z,1026.68
2018-12-29T00:43:06.443Z,1026.72
2018-12-29T00:44:06.411Z,1026.70
2018-12-29T00:45:06.394Z,1026.68
2018-12-29T00:46:06.345Z,1026.69
2018-12-29T00:47:06.312Z,1026.66
2018-12-29T00:48:06.378Z,1026.64
2018-12-29T00:49:06.245Z,1026.62
2018-12-29T00:50:06.214Z,1026.64
2018-12-29T00:51:06.177Z,1026.61
2018-12-29T00:52:06.146Z,1026.65
2018-12-29T00:53:06.113Z,1026.63
2018-12-29T00:54:06.081Z,1026.58
2018-12-29T00:55:06.047Z,1026.63
2018-12-29T00:56:06.015Z,1026.61
2018-12-29T00:57:05.982Z,1026.62
2018-12-29T00:58:05.949Z,1026.57
2018-12-29T00:59:05.915Z,1026.60
2018-12-29T01:00:05.882Z,1026.55
2018-12-29T01:01:05.851Z,1026.59
2018-12-29T01:02:05.815Z,1026.53
2018-12-29T01:03:05.784Z,1026.54
2018-12-29T01:04:05.751Z,1026.52
2018-12-29T01:05:05.717Z,1026.52
2018-12-29T01:06:05.684Z,1026.52
2018-12-29T01:07:05.652Z,1026.52
2018-12-29T01:08:05.618Z,1026.51
2018-12-29T01:09:05.585Z,1026.51
2018-12-29T01:10:05.553Z,1026.53
2018-12-29T01:11:05.521Z,1026.58
2018-12-29T01:12:05.490Z,1026.54
2018-12-29T01:13:05.457Z,1026.57
2018-12-29T01:14:06.682Z,1026.55
2018-12-29T01:15:09.976Z,1026.56
2018-12-29T01:16:05.355Z,1026.55
2018-12-29T01:17:05.322Z,1026.61
2018-12-29T01:18:05.288Z,1026.59
2018-12-29T01:19:05.258Z,1026.54
2018-12-29T01:20:05.228Z,1026.61
2018-12-29T01:21:05.190Z,1026.60
2018-12-29T01:22:05.157Z,1026.58
2018-12-29T01:23:05.124Z,1026.56
2018-12-29T01:24:05.091Z,1026.59
2018-12-29T01:25:05.057Z,1026.59
2018-12-29T01:26:05.024Z,1026.54
2018-12-29T01:27:04.992Z,1026.54
2018-12-29T01:28:04.959Z,1026.57
2018-12-29T01:29:04.925Z,1026.54
2018-12-29T01:30:04.893Z,1026.57
2018-12-29T01:31:04.861Z,1026.56
2018-12-29T01:32:04.827Z,1026.56
2018-12-29T01:33:04.793Z,1026.59
2018-12-29T01:34:04.761Z,1026.54
2018-12-29T01:35:04.727Z,1026.56
2018-12-29T01:36:04.695Z,1026.55
2018-12-29T01:37:04.662Z,1026.52
2018-12-29T01:38:04.628Z,1026.52
2018-12-29T01:39:04.597Z,1026.49
2018-12-29T01:40:04.562Z,1026.48
2018-12-29T01:41:04.532Z,1026.49
2018-12-29T01:42:04.497Z,1026.48
2018-12-29T01:43:04.463Z,1026.44
2018-12-29T01:44:04.431Z,1026.50
2018-12-29T01:45:04.398Z,1026.53
2018-12-29T01:46:04.365Z,1026.51
2018-12-29T01:47:04.331Z,1026.51
2018-12-29T01:48:04.299Z,1026.51
2018-12-29T01:49:04.264Z,1026.53
2018-12-29T01:50:04.232Z,1026.47
2018-12-29T01:51:04.203Z,1026.48
2018-12-29T01:52:04.166Z,1026.46
2018-12-29T01:53:04.144Z,1026.50
2018-12-29T01:54:04.100Z,1026.48
2018-12-29T01:55:04.069Z,1026.50
2018-12-29T01:56:04.036Z,1026.47
2018-12-29T01:57:04.001Z,1026.51
2018-12-29T01:58:03.969Z,1026.58
2018-12-29T01:59:03.937Z,1026.59
2018-12-29T02:00:03.902Z,1026.57
2018-12-29T02:01:03.869Z,1026.57
2018-12-29T02:02:03.838Z,1026.53
2018-12-29T02:03:03.803Z,1026.57
2018-12-29T02:04:03.770Z,1026.58
2018-12-29T02:05:03.737Z,1026.60
2018-12-29T02:06:03.704Z,1026.62
2018-12-29T02:07:03.670Z,1026.62
2018-12-29T02:08:03.639Z,1026.65
2018-12-29T02:09:03.606Z,1026.66
2018-12-29T02:10:03.572Z,1026.65
2018-12-29T02:11:03.541Z,1026.69
2018-12-29T02:12:03.506Z,1026.66
2018-12-29T02:13:03.474Z,1026.70
2018-12-29T02:14:03.445Z,1026.65
2018-12-29T02:15:03.409Z,1026.65
2018-12-29T02:16:03.376Z,1026.64
2018-12-29T02:17:03.342Z,1026.64
2018-12-29T02:18:03.308Z,1026.65
2018-12-29T02:19:03.275Z,1026.67
2018-12-29T02:20:03.241Z,1026.67
2018-12-29T02:21:03.209Z,1026.71
2018-12-29T02:22:03.175Z,1026.74
2018-12-29T02:23:03.148Z,1026.70
2018-12-29T02:24:03.109Z,1026.72
2018-12-29T02:25:03.075Z,1026.73
2018-12-29T02:26:03.048Z,1026.70
2018-12-29T02:27:03.014Z,1026.73
2018-12-29T02:28:02.978Z,1026.69
2018-12-29T02:29:02.948Z,1026.65
2018-12-29T02:30:02.943Z,1026.65
2018-12-29T02:31:02.879Z,1026.68
2018-12-29T02:32:02.844Z,1026.68
2018-12-29T02:33:02.812Z,1026.69
2018-12-29T02:34:02.779Z,1026.70
2018-12-29T02:35:02.746Z,1026.71
2018-12-29T02:36:02.714Z,1026.68
2018-12-29T02:37:02.679Z,1026.66
2018-12-29T02:38:02.647Z,1026.66
2018-12-29T02:39:02.614Z,1026.66
2018-12-29T02:40:02.580Z,1026.65
2018-12-29T02:41:02.547Z,1026.60
2018-12-29T02:42:02.522Z,1026.63
2018-12-29T02:43:02.483Z,1026.60
2018-12-29T02:44:02.448Z,1026.56
2018-12-29T02:45:02.420Z,1026.54
2018-12-29T02:46:02.381Z,1026.51
2018-12-29T02:47:02.350Z,1026.55
2018-12-29T02:48:02.314Z,1026.50
2018-12-29T02:49:02.281Z,1026.55
2018-12-29T02:50:02.248Z,1026.51
2018-12-29T02:51:02.217Z,1026.46
2018-12-29T02:52:02.203Z,1026.45
2018-12-29T02:53:02.149Z,1026.51
2018-12-29T02:54:02.119Z,1026.48
2018-12-29T02:55:02.082Z,1026.50
2018-12-29T02:56:02.050Z,1026.53
2018-12-29T02:57:02.017Z,1026.55
2018-12-29T02:58:01.984Z,1026.57
2018-12-29T02:59:01.957Z,1026.57
2018-12-29T03:00:01.931Z,1026.57
2018-12-29T03:01:01.890Z,1026.57
2018-12-29T03:02:01.858Z,1026.53
2018-12-29T03:03:01.817Z,1026.55
2018-12-29T03:04:01.785Z,1026.57
2018-12-29T03:05:01.751Z,1026.59
2018-12-29T03:06:01.727Z,1026.55
2018-12-29T03:07:01.689Z,1026.52
2018-12-29T03:08:01.652Z,1026.57
2018-12-29T03:09:01.618Z,1026.47
2018-12-29T03:10:01.585Z,1026.47
2018-12-29T03:11:01.552Z,1026.42
2018-12-29T03:12:01.519Z,1026.44
2018-12-29T03:13:01.486Z,1026.40
2018-12-29T03:14:01.454Z,1026.39
2018-12-29T03:15:01.419Z,1026.37
2018-12-29T03:16:01.385Z,1026.39
2018-12-29T03:17:01.352Z,1026.37
2018-12-29T03:18:01.336Z,1026.35
2018-12-29T03:19:01.291Z,1026.32
2018-12-29T03:20:01.254Z,1026.29
2018-12-29T03:21:01.221Z,1026.27
2018-12-29T03:22:01.188Z,1026.19
2018-12-29T03:23:01.155Z,1026.18
2018-12-29T03:24:01.121Z,1026.16
2018-12-29T03:25:01.089Z,1026.13
2018-12-29T03:26:01.054Z,1026.13
2018-12-29T03:27:01.022Z,1026.08
2018-12-29T03:28:00.987Z,1026.05
2018-12-29T03:29:00.969Z,1026.05
2018-12-29T03:30:00.923Z,1026.02
2018-12-29T03:31:00.890Z,1025.98
2018-12-29T03:32:00.856Z,1025.97
2018-12-29T03:33:00.824Z,1026.02
2018-12-29T03:34:00.798Z,1025.99
2018-12-29T03:35:00.757Z,1026.01
2018-12-29T03:36:00.727Z,1026.04
2018-12-29T03:37:00.689Z,1025.99
2018-12-29T03:38:00.658Z,1025.97
2018-12-29T03:39:00.624Z,1025.91
2018-12-29T03:40:00.590Z,1025.97
2018-12-29T03:41:00.558Z,1025.96
2018-12-29T03:42:00.524Z,1026.00
2018-12-29T03:43:00.491Z,1026.05
2018-12-29T03:44:00.456Z,1026.06
2018-12-29T03:45:00.431Z,1026.12
2018-12-29T03:46:00.391Z,1026.11
2018-12-29T03:47:00.362Z,1026.15
2018-12-29T03:48:00.325Z,1026.09
2018-12-29T03:49:00.290Z,1026.10
2018-12-29T03:50:00.269Z,1026.09
2018-12-29T03:51:00.232Z,1026.06
2018-12-29T03:52:00.191Z,1026.06
2018-12-29T03:53:00.159Z,1026.05
2018-12-29T03:54:00.126Z,1026.03
2018-12-29T03:55:00.327Z,1026.06
2018-12-29T03:56:00.059Z,1026.05
2018-12-29T03:57:00.027Z,1026.06
2018-12-29T03:58:00.000Z,1025.99
2018-12-29T03:58:59.961Z,1026.02
2018-12-29T03:59:59.926Z,1026.06
2018-12-29T04:00:59.894Z,1026.05
2018-12-29T04:01:59.860Z,1026.10
2018-12-29T04:02:59.827Z,1026.16
2018-12-29T04:03:59.794Z,1026.15
2018-12-29T04:04:59.830Z,1026.15
2018-12-29T04:05:59.727Z,1026.14
2018-12-29T04:06:59.695Z,1026.11
2018-12-29T04:07:59.661Z,1026.11
2018-12-29T04:08:59.627Z,1026.10
2018-12-29T04:09:59.594Z,1026.01
2018-12-29T04:10:59.712Z,1026.05
2018-12-29T04:11:59.527Z,1026.02
2018-12-29T04:12:59.499Z,1026.02
2018-12-29T04:13:59.464Z,1026.07
2018-12-29T04:14:59.429Z,1026.06
2018-12-29T04:15:59.395Z,1026.04
2018-12-29T04:16:59.364Z,1026.11
2018-12-29T04:17:59.332Z,1026.08
2018-12-29T04:18:59.296Z,1026.13
2018-12-29T04:19:59.266Z,1026.13
2018-12-29T04:20:59.235Z,1026.15
2018-12-29T04:21:59.197Z,1026.18
2018-12-29T04:22:59.163Z,1026.16
2018-12-29T04:23:59.131Z,1026.17
2018-12-29T04:24:59.098Z,1026.17
2018-12-29T04:25:59.065Z,1026.14
2018-12-29T04:26:59.036Z,1026.13
2018-12-29T04:27:58.997Z,1026.19
2018-12-29T04:28:58.966Z,1026.22
2018-12-29T04:29:58.932Z,1026.18
2018-12-29T04:30:58.900Z,1026.15
2018-12-29T04:31:58.864Z,1026.17
2018-12-29T04:32:58.832Z,1026.15
2018-12-29T04:33:58.801Z,1026.16
2018-12-29T04:34:58.766Z,1026.17
2018-12-29T04:35:58.734Z,1026.19
2018-12-29T04:36:58.701Z,1026.15
2018-12-29T04:37:58.666Z,1026.13
2018-12-29T04:38:58.634Z,1026.13
2018-12-29T04:39:58.600Z,1026.16
2018-12-29T04:40:58.567Z,1026.13
2018-12-29T04:41:58.535Z,1026.15
2018-12-29T04:42:58.501Z,1026.17
2018-12-29T04:43:58.468Z,1026.11
2018-12-29T04:44:58.436Z,1026.10
2018-12-29T04:46:05.096Z,1026.14
2018-12-29T04:46:58.369Z,1026.10
2018-12-29T04:47:58.336Z,1026.06
2018-12-29T04:48:58.303Z,1026.10
2018-12-29T04:49:58.271Z,1026.11
2018-12-29T04:50:58.242Z,1026.10
2018-12-29T04:51:58.204Z,1026.17
2018-12-29T04:52:58.169Z,1026.17
2018-12-29T04:53:58.138Z,1026.14
2018-12-29T04:54:58.104Z,1026.15
2018-12-29T04:55:58.073Z,1026.11
2018-12-29T04:56:58.038Z,1026.12
2018-12-29T04:57:58.005Z,1026.10
2018-12-29T04:58:57.971Z,1026.10
2018-12-29T04:59:57.938Z,1026.07
2018-12-29T05:00:57.904Z,1026.07
2018-12-29T05:01:57.872Z,1026.08
2018-12-29T05:02:57.839Z,1026.03
2018-12-29T05:03:57.808Z,1026.03
2018-12-29T05:04:57.775Z,1026.03
2018-12-29T05:05:57.739Z,1026.07
2018-12-29T05:06:57.708Z,1026.05
2018-12-29T05:07:57.672Z,1026.02
2018-12-29T05:08:57.639Z,1026.04
2018-12-29T05:09:57.607Z,1026.05
2018-12-29T05:10:57.573Z,1026.08
2018-12-29T05:11:57.539Z,1026.06
2018-12-29T05:12:57.505Z,1026.07
2018-12-29T05:13:57.473Z,1026.04
2018-12-29T05:14:57.441Z,1026.10
2018-12-29T05:15:57.407Z,1026.09
2018-12-29T05:16:57.373Z,1026.10
2018-12-29T05:17:57.342Z,1026.07
2018-12-29T05:18:57.308Z,1026.10
2018-12-29T05:19:57.273Z,1026.09
2018-12-29T05:20:57.241Z,1026.13
2018-12-29T05:21:57.208Z,1026.12
2018-12-29T05:22:57.175Z,1026.13
2018-12-29T05:23:57.140Z,1026.16
2018-12-29T05:24:57.109Z,1026.15
2018-12-29T05:25:57.076Z,1026.14
2018-12-29T05:26:57.043Z,1026.17
2018-12-29T05:27:57.009Z,1026.16
2018-12-29T05:28:56.975Z,1026.12
2018-12-29T05:29:56.943Z,1026.13
2018-12-29T05:30:56.913Z,1026.08
2018-12-29T05:31:56.877Z,1026.12
2018-12-29T05:32:56.842Z,1026.10
2018-12-29T05:33:56.810Z,1026.07
2018-12-29T05:34:56.779Z,1026.12
2018-12-29T05:35:56.743Z,1026.12
2018-12-29T05:36:56.711Z,1026.12
2018-12-29T05:37:56.679Z,1026.14
2018-12-29T05:38:56.646Z,1026.13
2018-12-29T05:39:56.611Z,1026.13
2018-12-29T05:40:56.579Z,1026.16
2018-12-29T05:41:56.547Z,1026.16
2018-12-29T05:42:56.513Z,1026.16
2018-12-29T05:43:56.480Z,1026.12
2018-12-29T05:44:56.445Z,1026.14
2018-12-29T05:45:56.414Z,1026.07
2018-12-29T05:46:56.381Z,1026.06
2018-12-29T05:47:56.348Z,1026.09
2018-12-29T05:48:56.314Z,1026.10
2018-12-29T05:49:56.283Z,1026.04
2018-12-29T05:50:56.250Z,1026.06
2018-12-29T05:51:56.214Z,1026.00
2018-12-29T05:52:56.183Z,1026.07
2018-12-29T05:53:56.148Z,1026.02
2018-12-29T05:54:56.116Z,1026.02
2018-12-29T05:55:56.084Z,1026.00
2018-12-29T05:56:56.049Z,1026.00
2018-12-29T05:57:56.017Z,1026.03
2018-12-29T05:58:55.984Z,1026.05
2018-12-29T05:59:55.949Z,1026.02
2018-12-29T06:00:55.920Z,1026.03
2018-12-29T06:01:55.883Z,1026.04
2018-12-29T06:02:55.854Z,1026.08
2018-12-29T06:03:55.820Z,1026.06
2018-12-29T06:04:55.784Z,1026.10
2018-12-29T06:05:55.750Z,1026.11
2018-12-29T06:06:55.718Z,1026.14
2018-12-29T06:07:55.683Z,1026.14
2018-12-29T06:08:55.651Z,1026.12
2018-12-29T06:09:55.617Z,1026.17
2018-12-29T06:10:55.586Z,1026.19
2018-12-29T06:11:55.551Z,1026.13
2018-12-29T06:12:55.520Z,1026.17
2018-12-29T06:13:55.487Z,1026.15
2018-12-29T06:14:55.454Z,1026.20
2018-12-29T06:15:55.418Z,1026.19
2018-12-29T06:16:55.389Z,1026.21
2018-12-29T06:17:55.352Z,1026.20
2018-12-29T06:18:55.323Z,1026.24
2018-12-29T06:19:55.286Z,1026.24
2018-12-29T06:20:55.253Z,1026.22
2018-12-29T06:21:55.221Z,1026.25
2018-12-29T06:22:55.187Z,1026.22
2018-12-29T06:23:55.154Z,1026.25
2018-12-29T06:24:55.122Z,1026.25
2018-12-29T06:25:55.088Z,1026.25
2018-12-29T06:26:55.056Z,1026.20
2018-12-29T06:27:55.020Z,1026.22
2018-12-29T06:28:54.991Z,1026.24
2018-12-29T06:29:54.954Z,1026.27
2018-12-29T06:30:54.921Z,1026.24
2018-12-29T06:31:54.888Z,1026.20
2018-12-29T06:32:54.855Z,1026.29
2018-12-29T06:33:54.823Z,1026.22
2018-12-29T06:34:54.791Z,1026.21
2018-12-29T06:35:54.760Z,1026.22
2018-12-29T06:36:54.723Z,1026.26
2018-12-29T06:37:54.693Z,1026.30
2018-12-29T06:38:54.657Z,1026.31
2018-12-29T06:39:54.624Z,1026.28
2018-12-29T06:40:54.590Z,1026.27
2018-12-29T06:41:54.559Z,1026.31
2018-12-29T06:42:54.525Z,1026.32
2018-12-29T06:43:54.491Z,1026.31
2018-12-29T06:44:54.459Z,1026.31
2018-12-29T06:45:54.425Z,1026.33
2018-12-29T06:46:54.392Z,1026.31
2018-12-29T06:47:54.359Z,1026.27
2018-12-29T06:48:54.330Z,1026.26
2018-12-29T06:49:54.293Z,1026.18
2018-12-29T06:50:54.262Z,1026.23
2018-12-29T06:51:54.228Z,1026.22
2018-12-29T06:52:54.194Z,1026.22
2018-12-29T06:53:54.163Z,1026.22
2018-12-29T06:54:54.133Z,1026.25
2018-12-29T06:55:54.095Z,1026.27
2018-12-29T06:56:54.061Z,1026.23
2018-12-29T06:57:54.029Z,1026.21
2018-12-29T06:58:53.997Z,1026.23
2018-12-29T06:59:53.963Z,1026.26
2018-12-29T07:00:53.929Z,1026.25
2018-12-29T07:01:53.899Z,1026.25
2018-12-29T07:02:53.863Z,1026.22
2018-12-29T07:03:53.830Z,1026.23
2018-12-29T07:04:53.806Z,1026.22
2018-12-29T07:05:53.764Z,1026.18
2018-12-29T07:06:53.732Z,1026.25
2018-12-29T07:07:53.699Z,1026.25
2018-12-29T07:08:53.665Z,1026.21
2018-12-29T07:09:53.632Z,1026.21
2018-12-29T07:10:53.599Z,1026.26
2018-12-29T07:11:53.564Z,1026.23
2018-12-29T07:12:53.533Z,1026.22
2018-12-29T07:13:53.501Z,1026.21
2018-12-29T07:14:53.468Z,1026.19
2018-12-29T07:15:53.434Z,1026.24
2018-12-29T07:16:53.401Z,1026.20
2018-12-29T07:17:53.369Z,1026.23
2018-12-29T07:18:53.335Z,1026.19
2018-12-29T07:19:53.305Z,1026.26
2018-12-29T07:20:53.272Z,1026.24
2018-12-29T07:21:53.236Z,1026.26
2018-12-29T07:22:53.203Z,1026.28
2018-12-29T07:23:53.169Z,1026.27
2018-12-29T07:24:53.136Z,1026.25
2018-12-29T07:25:53.104Z,1026.29
2018-12-29T07:26:53.071Z,1026.30
2018-12-29T07:27:53.037Z,1026.32
2018-12-29T07:28:53.005Z,1026.34
2018-12-29T07:29:52.972Z,1026.29
2018-12-29T07:30:52.939Z,1026.29
2018-12-29T07:31:52.905Z,1026.28
2018-12-29T07:32:52.870Z,1026.37
2018-12-29T07:33:52.839Z,1026.37
2018-12-29T07:34:52.806Z,1026.37
2018-12-29T07:35:52.773Z,1026.38
2018-12-29T07:36:52.742Z,1026.35
2018-12-29T07:37:52.707Z,1026.39
2018-12-29T07:38:52.674Z,1026.38
2018-12-29T07:39:52.641Z,1026.38
2018-12-29T07:40:52.609Z,1026.41
2018-12-29T07:41:52.576Z,1026.38
2018-12-29T07:42:52.544Z,1026.38
2018-12-29T07:43:52.509Z,1026.40
2018-12-29T07:44:52.476Z,1026.34
2018-12-29T07:45:52.444Z,1026.40
2018-12-29T07:46:52.412Z,1026.37
2018-12-29T07:47:52.376Z,1026.34
2018-12-29T07:48:52.345Z,1026.37
2018-12-29T07:49:52.311Z,1026.40
2018-12-29T07:50:52.280Z,1026.38
2018-12-29T07:51:52.247Z,1026.37
2018-12-29T07:52:52.214Z,1026.35
2018-12-29T07:53:52.180Z,1026.31
2018-12-29T07:54:52.148Z,1026.30
2018-12-29T07:55:52.115Z,1026.19
2018-12-29T07:56:52.083Z,1026.17
2018-12-29T07:57:52.049Z,1026.18
2018-12-29T07:58:52.017Z,1026.17
2018-12-29T07:59:51.984Z,1026.18
2018-12-29T08:00:51.950Z,1026.20
2018-12-29T08:01:51.918Z,1026.20
2018-12-29T08:02:51.885Z,1026.20
2018-12-29T08:03:51.851Z,1026.23
2018-12-29T08:04:51.820Z,1026.21
2018-12-29T08:05:51.786Z,1026.14
2018-12-29T08:06:51.753Z,1026.11
2018-12-29T08:07:51.720Z,1026.07
2018-12-29T08:08:51.686Z,1026.14
2018-12-29T08:09:51.655Z,1026.21
2018-12-29T08:10:51.621Z,1026.15
2018-12-29T08:11:51.589Z,1026.14
2018-12-29T08:12:51.557Z,1026.18
2018-12-29T08:13:51.522Z,1026.19
2018-12-29T08:14:51.495Z,1026.20
2018-12-29T08:15:51.456Z,1026.20
2018-12-29T08:16:56.830Z,1026.21
2018-12-29T08:17:51.390Z,1026.21
2018-12-29T08:18:51.358Z,1026.21
2018-12-29T08:19:51.324Z,1026.25
2018-12-29T08:20:51.292Z,1026.26
2018-12-29T08:21:51.263Z,1026.20
2018-12-29T08:22:51.228Z,1026.21
2018-12-29T08:23:51.194Z,1026.18
2018-12-29T08:24:51.161Z,1026.19
2018-12-29T08:25:51.128Z,1026.17
2018-12-29T08:26:51.096Z,1026.19
2018-12-29T08:27:51.064Z,1026.23
2018-12-29T08:28:51.032Z,1026.22
2018-12-29T08:29:51.000Z,1026.21
2018-12-29T08:30:50.964Z,1026.19
2018-12-29T08:31:50.930Z,1026.16
2018-12-29T08:32:50.900Z,1026.20
2018-12-29T08:33:50.866Z,1026.15
2018-12-29T08:34:50.835Z,1026.14
2018-12-29T08:35:50.801Z,1026.11
2018-12-29T08:36:50.766Z,1026.07
2018-12-29T08:37:50.734Z,1026.09
2018-12-29T08:38:50.701Z,1026.12
2018-12-29T08:39:50.667Z,1026.12
2018-12-29T08:40:50.636Z,1026.11
2018-12-29T08:41:50.603Z,1026.08
2018-12-29T08:42:50.570Z,1026.09
2018-12-29T08:43:50.537Z,1026.10
2018-12-29T08:44:50.504Z,1026.01
2018-12-29T08:45:50.473Z,1026.02
2018-12-29T08:46:50.439Z,1026.01
2018-12-29T08:47:50.407Z,1026.04
2018-12-29T08:48:50.375Z,1026.01
2018-12-29T08:49:50.341Z,1026.01
2018-12-29T08:50:50.309Z,1026.04
2018-12-29T08:51:50.276Z,1026.01
2018-12-29T08:52:50.244Z,1026.02
2018-12-29T08:53:50.210Z,1025.99
2018-12-29T08:54:50.178Z,1026.00
2018-12-29T08:55:50.145Z,1026.01
2018-12-29T08:56:50.113Z,1025.97
2018-12-29T08:57:50.081Z,1026.00
2018-12-29T08:58:50.049Z,1026.03
2018-12-29T08:59:50.015Z,1026.02
2018-12-29T09:00:49.983Z,1025.98
2018-12-29T09:01:49.950Z,1025.96
2018-12-29T09:02:49.918Z,1025.97
2018-12-29T09:03:49.886Z,1025.92
2018-12-29T09:04:49.853Z,1025.93
2018-12-29T09:05:49.822Z,1025.91
2018-12-29T09:06:49.789Z,1025.88
2018-12-29T09:07:49.757Z,1025.91
2018-12-29T09:08:49.723Z,1025.90
2018-12-29T09:09:49.696Z,1025.89
2018-12-29T09:10:49.663Z,1025.82
2018-12-29T09:11:49.626Z,1025.82
2018-12-29T09:12:49.594Z,1025.80
2018-12-29T09:13:49.567Z,1025.81
2018-12-29T09:14:49.530Z,1025.78
2018-12-29T09:15:49.498Z,1025.77
2018-12-29T09:16:49.466Z,1025.71
2018-12-29T09:17:49.434Z,1025.74
2018-12-29T09:18:49.834Z,1025.80
2018-12-29T09:19:49.368Z,1025.82
2018-12-29T09:20:49.341Z,1025.77
2018-12-29T09:21:49.304Z,1025.76
2018-12-29T09:22:49.274Z,1025.78
2018-12-29T09:23:49.239Z,1025.76
2018-12-29T09:24:49.207Z,1025.78
2018-12-29T09:25:49.217Z,1025.82
2018-12-29T09:26:49.145Z,1025.84
2018-12-29T09:27:49.111Z,1025.81
2018-12-29T09:28:49.079Z,1025.84
2018-12-29T09:29:49.046Z,1025.81
2018-12-29T09:30:49.085Z,1025.75
2018-12-29T09:31:48.982Z,1025.72
2018-12-29T09:32:48.954Z,1025.66
2018-12-29T09:33:48.918Z,1025.69
2018-12-29T09:34:48.887Z,1025.71
2018-12-29T09:35:48.856Z,1025.73
2018-12-29T09:36:48.821Z,1025.74
2018-12-29T09:37:48.791Z,1025.73
2018-12-29T09:38:48.757Z,1025.75
2018-12-29T09:39:48.725Z,1025.74
2018-12-29T09:40:48.694Z,1025.74
2018-12-29T09:41:48.661Z,1025.68
2018-12-29T09:42:48.632Z,1025.64
2018-12-29T09:43:48.598Z,1025.63
2018-12-29T09:44:48.569Z,1025.58
2018-12-29T09:45:48.534Z,1025.51
2018-12-29T09:46:48.505Z,1025.51
2018-12-29T09:47:48.471Z,1025.59
2018-12-29T09:48:48.438Z,1025.60
2018-12-29T09:49:48.408Z,1025.62
2018-12-29T09:50:48.376Z,1025.66
2018-12-29T09:51:48.344Z,1025.62
2018-12-29T09:52:48.312Z,1025.54
2018-12-29T09:53:48.280Z,1025.53
2018-12-29T09:54:48.250Z,1025.53
2018-12-29T09:55:48.217Z,1025.59
2018-12-29T09:56:48.192Z,1025.62
2018-12-29T09:57:48.154Z,1025.53
2018-12-29T09:58:48.122Z,1025.51
2018-12-29T09:59:48.089Z,1025.51
2018-12-29T10:00:48.060Z,1025.49
2018-12-29T10:01:48.028Z,1025.52
2018-12-29T10:02:47.996Z,1025.54
2018-12-29T10:03:47.964Z,1025.52
2018-12-29T10:04:47.931Z,1025.52
2018-12-29T10:05:47.901Z,1025.51
2018-12-29T10:06:47.870Z,1025.57
2018-12-29T10:07:47.835Z,1025.50
2018-12-29T10:08:47.804Z,1025.54
2018-12-29T10:09:47.773Z,1025.48
2018-12-29T10:10:47.742Z,1025.52
2018-12-29T10:11:47.708Z,1025.55
2018-12-29T10:12:47.680Z,1025.57
2018-12-29T10:13:47.645Z,1025.52
2018-12-29T10:14:47.615Z,1025.52
2018-12-29T10:15:47.582Z,1025.47
2018-12-29T10:16:47.549Z,1025.47
2018-12-29T10:17:47.518Z,1025.43
2018-12-29T10:18:47.494Z,1025.43
2018-12-29T10:19:47.459Z,1025.43
2018-12-29T10:20:47.422Z,1025.37
2018-12-29T10:21:47.390Z,1025.35
2018-12-29T10:22:47.359Z,1025.38
2018-12-29T10:23:47.326Z,1025.37
2018-12-29T10:24:47.298Z,1025.33
2018-12-29T10:25:47.263Z,1025.34
2018-12-29T10:26:47.232Z,1025.32
2018-12-29T10:27:47.205Z,1025.27
2018-12-29T10:28:47.247Z,1025.25
2018-12-29T10:29:47.134Z,1025.24
2018-12-29T10:30:47.103Z,1025.19
2018-12-29T10:31:47.068Z,1025.18
2018-12-29T10:32:47.039Z,1025.17
2018-12-29T10:33:47.006Z,1025.15
2018-12-29T10:34:46.973Z,1025.15
2018-12-29T10:35:46.940Z,1025.13
2018-12-29T10:36:46.908Z,1025.12
2018-12-29T10:37:46.877Z,1025.09
2018-12-29T10:38:46.844Z,1025.08
2018-12-29T10:39:46.813Z,1025.04
2018-12-29T10:40:46.782Z,1025.02
2018-12-29T10:41:46.749Z,1025.00
2018-12-29T10:42:46.718Z,1024.98
2018-12-29T10:43:46.687Z,1024.94
2018-12-29T10:44:46.653Z,1024.99
2018-12-29T10:45:46.684Z,1025.02
2018-12-29T10:46:46.590Z,1024.96
2018-12-29T10:47:46.557Z,1024.96
2018-12-29T10:48:46.524Z,1024.95
2018-12-29T10:49:46.493Z,1024.97
2018-12-29T10:50:46.460Z,1024.96
2018-12-29T10:51:46.430Z,1024.97
2018-12-29T10:52:46.398Z,1024.95
2018-12-29T10:53:46.369Z,1024.95
2018-12-29T10:54:46.335Z,1024.92
2018-12-29T10:55:46.302Z,1024.86
2018-12-29T10:56:46.270Z,1024.90
2018-12-29T10:57:46.240Z,1024.82
2018-12-29T10:58:46.208Z,1024.83
2018-12-29T10:59:46.178Z,1024.82
2018-12-29T11:00:46.144Z,1024.75
2018-12-29T11:01:46.113Z,1024.70
2018-12-29T11:02:46.082Z,1024.76
2018-12-29T11:03:46.049Z,1024.69
2018-12-29T11:04:46.034Z,1024.72
2018-12-29T11:05:45.987Z,1024.70
2018-12-29T11:06:45.955Z,1024.68
2018-12-29T11:07:45.922Z,1024.67
2018-12-29T11:08:45.890Z,1024.73
2018-12-29T11:09:45.859Z,1024.73
2018-12-29T11:10:45.829Z,1024.70
2018-12-29T11:11:45.796Z,1024.71
2018-12-29T11:12:45.766Z,1024.67
2018-12-29T11:13:45.736Z,1024.66
2018-12-29T11:14:45.700Z,1024.59
2018-12-29T11:15:45.669Z,1024.61
2018-12-29T11:16:45.637Z,1024.60
2018-12-29T11:17:45.606Z,1024.57
2018-12-29T11:18:45.577Z,1024.58
2018-12-29T11:19:45.541Z,1024.61
2018-12-29T11:20:45.510Z,1024.61
2018-12-29T11:21:45.479Z,1024.57
2018-12-29T11:22:45.447Z,1024.54
2018-12-29T11:23:45.417Z,1024.52
2018-12-29T11:24:45.384Z,1024.56
2018-12-29T11:25:45.353Z,1024.58
2018-12-29T11:26:45.321Z,1024.51
2018-12-29T11:27:45.289Z,1024.53
2018-12-29T11:28:46.011Z,1024.50
2018-12-29T11:29:45.225Z,1024.51
2018-12-29T11:30:45.194Z,1024.53
2018-12-29T11:31:45.163Z,1024.54
2018-12-29T11:32:45.210Z,1024.48
2018-12-29T11:33:45.099Z,1024.51
2018-12-29T11:34:45.067Z,1024.52
2018-12-29T11:35:45.036Z,1024.49
2018-12-29T11:36:45.003Z,1024.46
2018-12-29T11:37:44.974Z,1024.47
2018-12-29T11:38:44.940Z,1024.41
2018-12-29T11:39:44.908Z,1024.41
2018-12-29T11:40:44.875Z,1024.37
2018-12-29T11:41:44.844Z,1024.39
2018-12-29T11:42:44.815Z,1024.34
2018-12-29T11:43:44.781Z,1024.36
2018-12-29T11:44:44.748Z,1024.33
2018-12-29T11:45:44.718Z,1024.33
2018-12-29T11:46:44.686Z,1024.40
2018-12-29T11:47:49.728Z,1024.35
2018-12-29T11:48:44.621Z,1024.36
2018-12-29T11:49:44.591Z,1024.30
2018-12-29T11:50:44.611Z,1024.34
2018-12-29T11:51:44.530Z,1024.24
2018-12-29T11:52:44.494Z,1024.24
2018-12-29T11:53:44.463Z,1024.25
2018-12-29T11:54:44.432Z,1024.18
2018-12-29T11:55:44.400Z,1024.14
2018-12-29T11:56:44.369Z,1024.10
2018-12-29T11:57:44.337Z,1024.07
2018-12-29T11:58:44.305Z,1024.10
2018-12-29T11:59:44.274Z,1024.03
2018-12-29T12:00:44.241Z,1023.97
2018-12-29T12:01:44.210Z,1023.98
2018-12-29T12:02:44.179Z,1023.96
2018-12-29T12:03:44.146Z,1023.91
2018-12-29T12:04:44.115Z,1023.96